createdAt,value
2023-02-19T00:01:11.290Z,4.43
2023-02-19T00:03:38.537Z,4.50
2023-02-19T00:06:06.534Z,4.43
2023-02-19T00:08:33.991Z,4.30
2023-02-19T00:11:08.639Z,4.45
2023-02-19T00:13:40.502Z,4.80
2023-02-19T00:16:13.400Z,4.13
2023-02-19T00:18:40.194Z,4.60
2023-02-19T00:21:06.927Z,4.60
2023-02-19T00:23:33.793Z,4.47
2023-02-19T00:26:18.202Z,4.40
2023-02-19T00:28:46.128Z,4.57
2023-02-19T00:31:26.794Z,4.70
2023-02-19T00:33:57.822Z,4.70
2023-02-19T00:36:24.487Z,4.50
2023-02-19T00:38:51.490Z,4.70
2023-02-19T00:41:19.605Z,4.57
2023-02-19T00:43:46.929Z,5.07
2023-02-19T00:46:13.501Z,4.50
2023-02-19T00:48:39.928Z,4.90
2023-02-19T00:51:06.558Z,5.20
2023-02-19T00:53:32.957Z,5.38
2023-02-19T00:55:59.367Z,5.07
2023-02-19T00:58:25.774Z,4.82
2023-02-19T01:00:52.234Z,5.13
2023-02-19T01:03:18.759Z,5.50
2023-02-19T01:05:45.134Z,5.28
2023-02-19T01:08:11.551Z,5.45
2023-02-19T01:10:37.948Z,5.07
2023-02-19T01:13:04.395Z,5.13
2023-02-19T01:15:33.084Z,5.25
2023-02-19T01:17:59.705Z,5.07
2023-02-19T01:20:27.359Z,5.25
2023-02-19T01:22:54.175Z,5.10
2023-02-19T01:25:20.621Z,5.00
2023-02-19T01:27:46.999Z,4.93
2023-02-19T01:30:13.569Z,4.50
2023-02-19T01:32:40.200Z,4.78
2023-02-19T01:35:06.832Z,4.55
2023-02-19T01:37:33.236Z,4.57
2023-02-19T01:39:59.700Z,4.47
2023-02-19T01:42:26.088Z,4.88
2023-02-19T01:45:30.800Z,5.20
2023-02-19T01:48:10.601Z,4.07
2023-02-19T01:50:44.583Z,4.50
2023-02-19T01:53:12.275Z,4.85
2023-02-19T01:55:39.207Z,4.70
2023-02-19T01:58:06.120Z,4.13
2023-02-19T02:00:33.497Z,4.25
2023-02-19T02:03:00.678Z,4.50
2023-02-19T02:05:37.269Z,3.75
2023-02-19T02:08:23.088Z,3.97
2023-02-19T02:10:50.570Z,3.80
2023-02-19T02:13:17.185Z,3.85
2023-02-19T02:15:54.200Z,3.80
2023-02-19T02:18:46.749Z,3.90
2023-02-19T02:21:51.831Z,3.60
2023-02-19T02:24:24.234Z,3.60
2023-02-19T02:26:53.745Z,4.10
2023-02-19T02:29:32.354Z,3.83
2023-02-19T02:32:04.177Z,3.63
2023-02-19T02:34:36.940Z,3.90
2023-02-19T02:37:04.386Z,3.63
2023-02-19T02:39:32.430Z,3.95
2023-02-19T02:42:18.641Z,3.45
2023-02-19T02:45:07.801Z,4.30
2023-02-19T02:47:57.285Z,3.83
2023-02-19T02:50:25.657Z,4.13
2023-02-19T02:53:14.927Z,4.00
2023-02-19T02:55:45.241Z,4.10
2023-02-19T02:58:12.621Z,4.35
2023-02-19T03:00:58.234Z,4.43
2023-02-19T03:03:26.963Z,4.10
2023-02-19T03:05:58.310Z,4.57
2023-02-19T03:08:59.342Z,4.18
2023-02-19T03:11:58.004Z,4.57
2023-02-19T03:15:09.925Z,4.35
2023-02-19T03:18:02.198Z,3.88
2023-02-19T03:20:30.126Z,4.50
2023-02-19T03:22:56.889Z,4.28
2023-02-19T03:25:47.617Z,4.57
2023-02-19T03:28:17.459Z,4.32
2023-02-19T03:30:48.098Z,4.45
2023-02-19T03:33:17.468Z,4.18
2023-02-19T03:35:50.969Z,4.32
2023-02-19T03:38:21.583Z,4.30
2023-02-19T03:40:59.202Z,4.43
2023-02-19T03:43:40.666Z,3.95
2023-02-19T03:46:23.336Z,4.15
2023-02-19T03:48:59.519Z,4.30
2023-02-19T03:51:39.061Z,4.75
2023-02-19T03:54:12.969Z,4.78
2023-02-19T03:56:45.910Z,4.88
2023-02-19T03:59:20.919Z,4.72
2023-02-19T04:01:52.486Z,4.18
2023-02-19T04:04:38.465Z,4.70
2023-02-19T04:07:05.562Z,4.65
2023-02-19T04:09:37.601Z,4.70
2023-02-19T04:12:05.345Z,4.68
2023-02-19T04:14:38.142Z,4.80
2023-02-19T04:17:07.348Z,4.47
2023-02-19T04:19:37.538Z,4.60
2023-02-19T04:22:06.565Z,4.55
2023-02-19T04:24:37.745Z,4.50
2023-02-19T04:27:04.949Z,4.10
2023-02-19T04:29:31.567Z,4.40
2023-02-19T04:31:58.067Z,4.47
2023-02-19T04:34:24.480Z,5.65
2023-02-19T04:36:50.874Z,5.35
2023-02-19T04:39:17.246Z,4.97
2023-02-19T04:41:43.728Z,6.28
2023-02-19T04:44:10.150Z,6.28
2023-02-19T04:46:36.541Z,6.43
2023-02-19T04:49:03.457Z,6.55
2023-02-19T04:51:29.867Z,5.60
2023-02-19T04:53:56.376Z,5.00
2023-02-19T04:56:22.915Z,4.85
2023-02-19T04:58:49.317Z,4.85
2023-02-19T05:01:15.730Z,4.50
2023-02-19T05:03:42.207Z,5.15
2023-02-19T05:06:11.811Z,4.72
2023-02-19T05:08:38.337Z,4.60
2023-02-19T05:11:06.566Z,4.50
2023-02-19T05:13:33.588Z,4.68
2023-02-19T05:16:02.772Z,4.50
2023-02-19T05:18:30.653Z,4.78
2023-02-19T05:20:57.621Z,4.32
2023-02-19T05:23:24.377Z,5.50
2023-02-19T05:25:50.807Z,5.10
2023-02-19T05:28:17.538Z,5.90
2023-02-19T05:30:45.202Z,6.88
2023-02-19T05:33:11.715Z,7.38
2023-02-19T05:35:45.982Z,6.57
2023-02-19T05:38:12.442Z,6.95
2023-02-19T05:40:39.074Z,6.85
2023-02-19T05:43:05.821Z,5.80
2023-02-19T05:45:32.581Z,4.90
2023-02-19T05:47:58.975Z,6.88
2023-02-19T05:50:25.487Z,7.45
2023-02-19T05:52:51.944Z,5.38
2023-02-19T05:55:18.560Z,5.90
2023-02-19T05:57:47.345Z,4.75
2023-02-19T06:00:16.666Z,5.28
2023-02-19T06:02:43.757Z,6.38
2023-02-19T06:05:10.538Z,7.40
2023-02-19T06:07:39.337Z,6.88
2023-02-19T06:10:06.859Z,7.20
2023-02-19T06:12:33.520Z,7.57
2023-02-19T06:15:00.042Z,7.50
2023-02-19T06:17:26.452Z,7.03
2023-02-19T06:19:52.894Z,5.25
2023-02-19T06:22:19.267Z,4.70
2023-02-19T06:24:47.355Z,3.97
2023-02-19T06:27:13.794Z,4.20
2023-02-19T06:29:40.275Z,3.88
2023-02-19T06:32:07.123Z,3.67
2023-02-19T06:34:34.435Z,3.38
2023-02-19T06:37:01.279Z,3.90
2023-02-19T06:39:28.348Z,3.70
2023-02-19T06:41:56.185Z,3.58
2023-02-19T06:44:22.713Z,3.50
2023-02-19T06:46:49.162Z,3.33
2023-02-19T06:49:15.769Z,3.80
2023-02-19T06:51:42.456Z,3.97
2023-02-19T06:54:08.883Z,3.85
2023-02-19T06:56:38.855Z,3.30
2023-02-19T06:59:08.507Z,3.42
2023-02-19T07:01:36.137Z,3.67
2023-02-19T07:04:03.753Z,3.22
2023-02-19T07:06:30.616Z,3.22
2023-02-19T07:08:58.054Z,4.00
2023-02-19T07:11:25.108Z,3.90
2023-02-19T07:13:56.564Z,3.42
2023-02-19T07:16:23.375Z,3.30
2023-02-19T07:18:50.133Z,3.95
2023-02-19T07:21:16.998Z,3.40
2023-02-19T07:23:44.329Z,3.65
2023-02-19T07:26:17.330Z,3.50
2023-02-19T07:28:45.382Z,3.55
2023-02-19T07:31:13.240Z,3.25
2023-02-19T07:33:39.949Z,3.40
2023-02-19T07:36:07.758Z,3.22
2023-02-19T07:38:34.180Z,3.17
2023-02-19T07:41:02.630Z,3.80
2023-02-19T07:43:30.908Z,3.33
2023-02-19T07:45:57.421Z,3.45
2023-02-19T07:48:24.215Z,3.35
2023-02-19T07:50:59.400Z,3.40
2023-02-19T07:53:27.342Z,3.28
2023-02-19T07:55:53.989Z,3.50
2023-02-19T07:58:20.376Z,3.63
2023-02-19T08:00:46.811Z,3.22
2023-02-19T08:03:13.306Z,3.33
2023-02-19T08:05:41.863Z,3.58
2023-02-19T08:08:10.492Z,4.00
2023-02-19T08:10:55.603Z,4.15
2023-02-19T08:13:22.841Z,3.90
2023-02-19T08:15:55.103Z,4.05
2023-02-19T08:18:25.492Z,3.78
2023-02-19T08:20:52.132Z,4.10
2023-02-19T08:23:20.629Z,3.90
2023-02-19T08:25:48.110Z,3.90
2023-02-19T08:28:14.719Z,3.47
2023-02-19T08:30:45.175Z,3.50
2023-02-19T08:33:19.078Z,3.60
2023-02-19T08:35:45.938Z,3.28
2023-02-19T08:38:13.572Z,3.40
2023-02-19T08:40:40.534Z,3.42
2023-02-19T08:43:09.359Z,3.45
2023-02-19T08:45:37.965Z,3.45
2023-02-19T08:48:05.066Z,3.53
2023-02-19T08:50:31.541Z,3.42
2023-02-19T08:53:01.926Z,3.55
2023-02-19T08:55:28.613Z,3.70
2023-02-19T08:57:55.093Z,3.40
2023-02-19T09:00:21.598Z,3.53
2023-02-19T09:02:49.290Z,3.17
2023-02-19T09:05:16.486Z,3.45
2023-02-19T09:07:43.051Z,3.22
2023-02-19T09:10:14.325Z,3.58
2023-02-19T09:12:41.224Z,3.88
2023-02-19T09:15:08.171Z,3.10
2023-02-19T09:17:34.691Z,3.13
2023-02-19T09:20:01.149Z,3.35
2023-02-19T09:22:27.550Z,3.40
2023-02-19T09:24:54.111Z,3.30
2023-02-19T09:27:20.524Z,3.17
2023-02-19T09:29:46.993Z,3.28
2023-02-19T09:32:14.151Z,3.15
2023-02-19T09:34:40.824Z,3.60
2023-02-19T09:37:07.822Z,3.17
2023-02-19T09:39:34.832Z,3.70
2023-02-19T09:42:11.667Z,3.47
2023-02-19T09:44:40.741Z,3.10
2023-02-19T09:47:17.972Z,3.20
2023-02-19T09:49:50.112Z,2.90
2023-02-19T09:52:49.956Z,3.33
2023-02-19T09:55:17.388Z,3.00
2023-02-19T09:57:44.830Z,3.10
2023-02-19T10:00:11.386Z,2.97
2023-02-19T10:02:38.522Z,2.92
2023-02-19T10:05:12.438Z,3.28
2023-02-19T10:07:43.847Z,4.97
2023-02-19T10:10:13.162Z,3.92
2023-02-19T10:12:51.537Z,4.00
2023-02-19T10:15:20.560Z,4.00
2023-02-19T10:17:46.965Z,3.92
2023-02-19T10:20:18.524Z,3.75
2023-02-19T10:22:45.045Z,4.22
2023-02-19T10:25:16.538Z,4.45
2023-02-19T10:27:43.989Z,4.30
2023-02-19T10:30:21.936Z,4.53
2023-02-19T10:33:01.250Z,4.60
2023-02-19T10:35:27.921Z,4.75
2023-02-19T10:37:54.451Z,4.05
2023-02-19T10:40:23.035Z,3.95
2023-02-19T10:42:56.198Z,4.60
2023-02-19T10:45:38.661Z,4.40
2023-02-19T10:48:07.355Z,3.80
2023-02-19T10:50:43.006Z,4.35
2023-02-19T10:53:23.021Z,4.93
2023-02-19T10:56:06.295Z,4.43
2023-02-19T10:58:34.476Z,3.90
2023-02-19T11:01:18.636Z,3.33
2023-02-19T11:03:49.586Z,4.28
2023-02-19T11:06:17.698Z,3.38
2023-02-19T11:08:59.003Z,3.60
2023-02-19T11:11:38.068Z,3.70
2023-02-19T11:14:19.019Z,3.30
2023-02-19T11:16:51.952Z,3.33
2023-02-19T11:19:22.734Z,3.42
2023-02-19T11:21:50.194Z,3.30
2023-02-19T11:24:29.530Z,3.15
2023-02-19T11:26:57.253Z,3.15
2023-02-19T11:29:25.826Z,3.30
2023-02-19T11:31:52.356Z,3.15
2023-02-19T11:34:21.209Z,3.35
2023-02-19T11:37:07.257Z,9.85
2023-02-19T11:39:33.811Z,6.30
2023-02-19T11:42:23.695Z,3.85
2023-02-19T11:45:15.954Z,3.28
2023-02-19T11:47:55.935Z,3.22
2023-02-19T11:50:44.444Z,3.88
2023-02-19T11:53:24.749Z,3.97
2023-02-19T11:56:16.071Z,3.95
2023-02-19T11:58:58.540Z,4.00
2023-02-19T12:01:51.563Z,2.95
2023-02-19T12:04:42.197Z,2.90
2023-02-19T12:07:37.002Z,3.38
2023-02-19T12:10:25.465Z,3.00
2023-02-19T12:13:10.554Z,3.30
2023-02-19T12:16:30.059Z,3.38
2023-02-19T12:19:05.649Z,3.17
2023-02-19T12:21:40.894Z,3.25
2023-02-19T12:24:25.611Z,3.60
2023-02-19T12:27:14.314Z,3.40
2023-02-19T12:30:11.425Z,3.15
2023-02-19T12:32:53.026Z,3.60
2023-02-19T12:35:37.653Z,3.30
2023-02-19T12:38:10.129Z,3.50
2023-02-19T12:40:54.551Z,3.50
2023-02-19T12:43:22.577Z,3.58
2023-02-19T12:45:58.779Z,3.55
2023-02-19T12:48:34.106Z,3.53
2023-02-19T12:51:12.410Z,4.03
2023-02-19T12:53:43.617Z,4.38
2023-02-19T12:56:19.028Z,4.38
2023-02-19T12:58:49.480Z,4.28
2023-02-19T13:01:21.050Z,4.07
2023-02-19T13:04:08.455Z,3.35
2023-02-19T13:06:59.610Z,3.75
2023-02-19T13:09:32.771Z,3.20
2023-02-19T13:12:13.005Z,3.72
2023-02-19T13:14:48.908Z,3.42
2023-02-19T13:17:26.176Z,4.18
2023-02-19T13:19:58.323Z,3.80
2023-02-19T13:22:47.892Z,3.30
2023-02-19T13:25:15.724Z,4.20
2023-02-19T13:28:14.571Z,3.72
2023-02-19T13:31:03.289Z,3.80
2023-02-19T13:33:57.670Z,3.17
2023-02-19T13:36:28.524Z,2.80
2023-02-19T13:38:57.299Z,3.80
2023-02-19T13:41:30.978Z,3.55
2023-02-19T13:44:01.329Z,3.90
2023-02-19T13:46:35.617Z,3.35
2023-02-19T13:49:25.924Z,3.60
2023-02-19T13:51:56.417Z,3.72
2023-02-19T13:54:26.370Z,4.07
2023-02-19T13:57:17.835Z,2.97
2023-02-19T13:59:45.248Z,3.50
2023-02-19T14:02:20.765Z,3.72
2023-02-19T14:04:50.327Z,3.63
2023-02-19T14:07:16.686Z,3.22
2023-02-19T14:09:46.034Z,3.65
2023-02-19T14:12:15.055Z,3.10
2023-02-19T14:14:42.304Z,3.33
2023-02-19T14:17:08.644Z,3.60
2023-02-19T14:19:41.227Z,2.75
2023-02-19T14:22:45.190Z,3.42
2023-02-19T14:25:33.362Z,3.17
2023-02-19T14:28:14.667Z,2.88
2023-02-19T14:31:00.992Z,2.80
2023-02-19T14:33:33.167Z,3.20
2023-02-19T14:36:06.134Z,3.60
2023-02-19T14:38:55.830Z,3.63
2023-02-19T14:41:23.344Z,3.78
2023-02-19T14:43:52.010Z,3.45
2023-02-19T14:46:31.259Z,3.83
2023-02-19T14:49:03.852Z,3.67
2023-02-19T14:51:40.148Z,3.90
2023-02-19T14:54:16.047Z,3.55
2023-02-19T14:56:44.650Z,3.10
2023-02-19T14:59:10.976Z,3.10
2023-02-19T15:01:37.982Z,3.00
2023-02-19T15:04:05.325Z,2.88
2023-02-19T15:06:33.782Z,3.25
2023-02-19T15:09:04.066Z,2.92
2023-02-19T15:11:32.387Z,2.95
2023-02-19T15:14:06.782Z,3.30
2023-02-19T15:16:35.591Z,3.15
2023-02-19T15:19:05.451Z,3.13
2023-02-19T15:21:32.753Z,2.92
2023-02-19T15:24:04.356Z,3.13
2023-02-19T15:26:42.012Z,3.25
2023-02-19T15:29:14.199Z,3.05
2023-02-19T15:31:55.074Z,4.07
2023-02-19T15:34:24.172Z,4.60
2023-02-19T15:37:01.897Z,19.52
2023-02-19T15:39:35.935Z,11.13
2023-02-19T15:42:03.585Z,6.00
2023-02-19T15:44:34.849Z,5.25
2023-02-19T15:47:08.239Z,3.53
2023-02-19T15:49:45.042Z,3.63
2023-02-19T15:52:26.099Z,3.20
2023-02-19T15:55:09.593Z,3.33
2023-02-19T15:57:40.212Z,3.30
2023-02-19T16:00:16.413Z,2.83
2023-02-19T16:02:45.610Z,3.40
2023-02-19T16:05:23.206Z,3.17
2023-02-19T16:08:06.476Z,2.85
2023-02-19T16:10:32.926Z,2.70
2023-02-19T16:13:00.796Z,3.17
2023-02-19T16:15:28.914Z,2.90
2023-02-19T16:17:57.941Z,2.95
2023-02-19T16:20:30.205Z,3.08
2023-02-19T16:23:00.357Z,3.15
2023-02-19T16:25:28.459Z,2.67
2023-02-19T16:27:55.225Z,2.72
2023-02-19T16:30:28.039Z,3.60
2023-02-19T16:33:22.571Z,3.80
2023-02-19T16:35:49.644Z,3.22
2023-02-19T16:38:17.385Z,3.25
2023-02-19T16:40:54.200Z,2.88
2023-02-19T16:43:24.774Z,3.15
2023-02-19T16:45:51.203Z,3.25
2023-02-19T16:48:18.385Z,2.78
2023-02-19T16:50:46.175Z,3.13
2023-02-19T16:53:19.944Z,2.80
2023-02-19T16:55:46.665Z,2.80
2023-02-19T16:58:13.256Z,3.03
2023-02-19T17:00:40.325Z,3.10
2023-02-19T17:03:19.542Z,2.88
2023-02-19T17:05:46.456Z,3.20
2023-02-19T17:08:36.957Z,3.80
2023-02-19T17:11:06.374Z,3.47
2023-02-19T17:13:32.854Z,3.63
2023-02-19T17:15:59.792Z,3.25
2023-02-19T17:18:26.383Z,3.03
2023-02-19T17:21:11.387Z,3.00
2023-02-19T17:23:37.957Z,2.58
2023-02-19T17:26:04.508Z,2.70
2023-02-19T17:28:30.890Z,2.50
2023-02-19T17:30:57.382Z,3.08
2023-02-19T17:33:23.808Z,3.17
2023-02-19T17:35:50.207Z,2.92
2023-02-19T17:38:16.622Z,3.10
2023-02-19T17:40:43.149Z,2.60
2023-02-19T17:43:09.552Z,3.28
2023-02-19T17:45:36.065Z,2.88
2023-02-19T17:48:02.561Z,3.47
2023-02-19T17:50:30.940Z,3.33
2023-02-19T17:52:58.180Z,3.33
2023-02-19T17:55:24.846Z,3.08
2023-02-19T17:57:52.351Z,3.10
2023-02-19T18:00:24.973Z,2.92
2023-02-19T18:02:51.606Z,3.28
2023-02-19T18:05:18.263Z,3.65
2023-02-19T18:07:45.803Z,3.60
2023-02-19T18:10:12.765Z,3.55
2023-02-19T18:12:39.678Z,4.60
2023-02-19T18:15:07.702Z,4.20
2023-02-19T18:17:34.937Z,4.25
2023-02-19T18:20:01.605Z,3.90
2023-02-19T18:22:28.415Z,4.18
2023-02-19T18:24:54.984Z,4.38
2023-02-19T18:27:23.404Z,4.50
2023-02-19T18:29:58.934Z,4.65
2023-02-19T18:32:25.422Z,4.57
2023-02-19T18:34:56.963Z,5.78
2023-02-19T18:37:24.999Z,3.85
2023-02-19T18:39:51.939Z,5.63
2023-02-19T18:42:18.646Z,5.57
2023-02-19T18:44:48.691Z,4.93
2023-02-19T18:47:15.985Z,4.30
2023-02-19T18:49:47.259Z,4.72
2023-02-19T18:52:14.456Z,7.05
2023-02-19T18:54:40.917Z,7.55
2023-02-19T18:57:08.632Z,8.70
2023-02-19T18:59:35.054Z,6.43
2023-02-19T19:02:01.468Z,5.30
2023-02-19T19:04:27.908Z,4.80
2023-02-19T19:06:54.385Z,4.05
2023-02-19T19:09:20.802Z,4.40
2023-02-19T19:11:47.219Z,4.45
2023-02-19T19:14:13.869Z,3.90
2023-02-19T19:16:40.830Z,3.92
2023-02-19T19:19:07.279Z,3.47
2023-02-19T19:21:33.715Z,3.60
2023-02-19T19:24:00.141Z,4.18
2023-02-19T19:26:26.581Z,4.05
2023-02-19T19:28:53.009Z,3.60
2023-02-19T19:31:21.392Z,4.15
2023-02-19T19:33:48.857Z,4.03
2023-02-19T19:36:19.448Z,4.22
2023-02-19T19:38:46.306Z,4.07
2023-02-19T19:41:15.253Z,4.57
2023-02-19T19:43:41.705Z,3.35
2023-02-19T19:46:10.809Z,4.03
2023-02-19T19:48:40.282Z,3.95
2023-02-19T19:51:08.027Z,3.45
2023-02-19T19:53:34.446Z,3.90
2023-02-19T19:56:01.157Z,3.67
2023-02-19T19:58:27.823Z,3.42
2023-02-19T20:00:54.639Z,3.42
2023-02-19T20:03:21.304Z,3.38
2023-02-19T20:05:50.249Z,3.38
2023-02-19T20:08:17.473Z,3.00
2023-02-19T20:10:45.419Z,3.45
2023-02-19T20:13:15.414Z,4.05
2023-02-19T20:15:41.821Z,3.13
2023-02-19T20:18:08.305Z,3.75
2023-02-19T20:20:34.765Z,3.78
2023-02-19T20:23:01.186Z,3.90
2023-02-19T20:25:27.729Z,4.25
2023-02-19T20:27:54.535Z,4.18
2023-02-19T20:30:22.933Z,3.70
2023-02-19T20:32:49.777Z,3.95
2023-02-19T20:35:17.624Z,4.22
2023-02-19T20:37:47.671Z,3.70
2023-02-19T20:40:15.985Z,3.65
2023-02-19T20:42:42.490Z,3.40
2023-02-19T20:45:09.169Z,4.22
2023-02-19T20:47:36.231Z,4.18
2023-02-19T20:50:02.689Z,4.25
2023-02-19T20:52:29.064Z,3.50
2023-02-19T20:54:56.256Z,3.28
2023-02-19T20:57:23.563Z,3.58
2023-02-19T20:59:50.024Z,4.05
2023-02-19T21:02:18.898Z,3.60
2023-02-19T21:04:45.376Z,4.20
2023-02-19T21:07:11.783Z,4.00
2023-02-19T21:09:38.222Z,4.00
2023-02-19T21:12:04.929Z,4.10
2023-02-19T21:14:31.625Z,3.72
2023-02-19T21:16:58.046Z,3.92
2023-02-19T21:19:24.616Z,3.70
2023-02-19T21:21:51.035Z,3.35
2023-02-19T21:24:17.484Z,3.83
2023-02-19T21:26:44.868Z,4.18
2023-02-19T21:29:16.872Z,4.20
2023-02-19T21:31:45.785Z,3.58
2023-02-19T21:34:13.770Z,4.22
2023-02-19T21:36:40.421Z,3.78
2023-02-19T21:39:08.536Z,4.38
2023-02-19T21:41:35.263Z,3.90
2023-02-19T21:44:01.657Z,3.78
2023-02-19T21:46:28.196Z,3.92
2023-02-19T21:48:55.852Z,3.70
2023-02-19T21:51:34.991Z,3.97
2023-02-19T21:54:01.532Z,3.80
2023-02-19T21:56:33.931Z,4.70
2023-02-19T21:59:01.776Z,4.20
2023-02-19T22:01:31.141Z,5.47
2023-02-19T22:03:57.941Z,5.63
2023-02-19T22:06:28.921Z,5.10
2023-02-19T22:08:55.564Z,5.15
2023-02-19T22:11:22.027Z,5.60
2023-02-19T22:13:48.539Z,6.65
2023-02-19T22:16:15.337Z,6.45
2023-02-19T22:18:53.085Z,6.15
2023-02-19T22:21:20.416Z,7.25
2023-02-19T22:23:48.370Z,7.55
2023-02-19T22:26:21.743Z,7.35
2023-02-19T22:28:48.255Z,7.30
2023-02-19T22:31:16.503Z,5.57
2023-02-19T22:33:43.155Z,5.70
2023-02-19T22:36:20.655Z,5.40
2023-02-19T22:38:47.506Z,5.30
2023-02-19T22:41:14.742Z,4.88
2023-02-19T22:43:41.122Z,4.93
2023-02-19T22:46:16.531Z,4.45
2023-02-19T22:48:42.988Z,6.20
2023-02-19T22:51:14.438Z,5.60
2023-02-19T22:53:52.265Z,6.78
2023-02-19T22:56:22.487Z,5.93
2023-02-19T22:58:49.082Z,6.68
2023-02-19T23:01:15.633Z,6.13
2023-02-19T23:03:49.230Z,7.93
2023-02-19T23:06:16.813Z,7.75
2023-02-19T23:08:44.066Z,7.50
2023-02-19T23:11:12.025Z,7.03
2023-02-19T23:13:40.694Z,6.60
2023-02-19T23:16:07.256Z,7.03
2023-02-19T23:18:33.704Z,7.47
2023-02-19T23:21:00.115Z,6.25
2023-02-19T23:23:26.543Z,6.47
2023-02-19T23:25:53.024Z,5.85
2023-02-19T23:28:19.476Z,6.03
2023-02-19T23:30:45.991Z,5.65
2023-02-19T23:33:12.513Z,5.50
2023-02-19T23:35:38.941Z,5.70
2023-02-19T23:38:05.368Z,4.88
2023-02-19T23:40:31.794Z,4.70
2023-02-19T23:42:58.314Z,4.43
2023-02-19T23:45:24.709Z,4.78
2023-02-19T23:47:51.148Z,5.45
2023-02-19T23:50:17.762Z,5.70
2023-02-19T23:52:44.229Z,5.15
2023-02-19T23:55:10.693Z,5.13
2023-02-19T23:57:37.154Z,5.28
